Nearby METAR Reports

 

LGTS - THESALONIKI, GR
Distance from station: 85km
: 22/01/2020 23:20

   varies
: varies 6 km/h
: 0°C
: -4°C
: 75%
: 1024 hPa
:
Visibility: greater than 10 km
2020/01/22 21:20 LGTS 222120Z VRB03KT CAVOK 00/M04 Q1024 NOSIG
LGAV - ATHENS, GR
Distance from station: 546km
: 22/01/2020 23:20


: 4 km/h
: 5°C
: 1°C
: 76%
: 1025 hPa
:
Visibility: greater than 10 km
2020/01/22 21:20 LGAV 222120Z 09002KT CAVOK 05/01 Q1025 NOSIG
 
LGKZ - KOZANI, GR
Distance from station: 130km
: 22/01/2020 23:20


: 9 km/h
: 5°C
Wind Chill: 3°C
: -14°C
: 24%
: 1025 hPa
2020/01/22 21:20 LGKZ 222120Z AUTO 32005KT //// // ////// 05/M14 Q1025 RE//
LGIO - IOANNINA, GR
Distance from station: 265km
: 22/01/2020 23:20

   varies
: varies 2 km/h
: -2°C
: -5°C
: 80%
: 1027 hPa
2020/01/22 21:20 LGIO 222120Z AUTO VRB01KT //// // ////// M02/M05 Q1027 RE//
 
LGKV - KABALA, GR
Distance from station: 220km
: 22/01/2020 22:50

   calm
:
: 3°C
: -1°C
: 75%
: 1024 hPa
:
Visibility: greater than 10 km
2020/01/22 20:50 LGKV 222050Z 00000KT CAVOK 03/M01 Q1024
LGAL - ALEXANDROUPOLI, GR
Distance from station: 367km
: 22/01/2020 21:20
NOT Current

   varies
: varies 4 km/h
: 3°C
: 1°C
: 87%
: 1024 hPa
:
Visibility: greater than 10 km
2020/01/22 19:20 LGAL 221920Z VRB02KT CAVOK 03/01 Q1024
 
LGSA - CHANIA,CRETE, GR
Distance from station: 866km
: 22/01/2020 23:20

   calm
:
: 9°C
: 8°C
: 94%
: 1025 hPa
:
Visibility: greater than 10 km
2020/01/22 21:20 LGSA 222120Z 00000KT CAVOK 09/08 Q1025
LGIR - HERAKLIO, CRETE, GR
Distance from station: 882km
: 22/01/2020 23:20

   varies
: varies 9 km/h
: 11°C
: 7°C
: 77%
: 1025 hPa
:
Visibility: greater than 10 km
2020/01/22 21:20 LGIR 222120Z VRB05KT CAVOK 11/07 Q1025 NOSIG
 
LGRP - RHODES, GR
Distance from station: 1.318km
: 22/01/2020 23:20
Few Clouds
Few Clouds
   varies
: varies 4 km/h
: 13°C
: 4°C
: 55%
: 1021 hPa
Clouds: Few Clouds
Visibility: 10 km
Cloud details: Few Clouds 549 m
2020/01/22 21:20 LGRP 222120Z VRB02KT 9999 FEW018 13/04 Q1021 NOSIG
LGLR - LARISSA, GR
Distance from station: 182km
: 22/01/2020 22:50

   calm
:
: -1°C
: -7°C
: 64%
: 1025 hPa
:
Visibility: greater than 10 km
2020/01/22 20:50 LGLR 222050Z 00000KT CAVOK M01/M07 Q1025 BLU